createdAt,value
2023-04-07T00:01:29.361Z,100.00
2023-04-07T00:04:26.545Z,100.00
2023-04-07T00:07:23.427Z,100.00
2023-04-07T00:10:20.339Z,100.00
2023-04-07T00:13:17.144Z,100.00
2023-04-07T00:16:14.022Z,100.00
2023-04-07T00:19:10.967Z,100.00
2023-04-07T00:22:07.908Z,100.00
2023-04-07T00:25:05.462Z,100.00
2023-04-07T00:28:02.349Z,100.00
2023-04-07T00:30:59.211Z,100.00
2023-04-07T00:33:57.789Z,100.00
2023-04-07T00:36:54.822Z,100.00
2023-04-07T00:39:52.274Z,100.00
2023-04-07T00:42:49.102Z,100.00
2023-04-07T00:45:46.261Z,100.00
2023-04-07T00:48:43.313Z,100.00
2023-04-07T00:51:40.509Z,100.00
2023-04-07T00:54:39.633Z,100.00
2023-04-07T00:57:36.527Z,100.00
2023-04-07T01:00:50.024Z,100.00
2023-04-07T01:04:01.026Z,100.00
2023-04-07T01:07:06.905Z,100.00
2023-04-07T01:10:06.870Z,100.00
2023-04-07T01:13:11.840Z,100.00
2023-04-07T01:16:16.859Z,100.00
2023-04-07T01:19:33.715Z,100.00
2023-04-07T01:22:40.545Z,100.00
2023-04-07T01:25:59.061Z,100.00
2023-04-07T01:29:19.987Z,100.00
2023-04-07T01:32:20.542Z,100.00
2023-04-07T01:35:19.211Z,100.00
2023-04-07T01:38:17.336Z,100.00
2023-04-07T01:41:15.952Z,100.00
2023-04-07T01:44:14.613Z,100.00
2023-04-07T01:47:12.846Z,100.00
2023-04-07T01:50:12.635Z,100.00
2023-04-07T01:53:11.177Z,100.00
2023-04-07T01:56:08.137Z,100.00
2023-04-07T01:59:05.033Z,100.00
2023-04-07T02:02:02.140Z,100.00
2023-04-07T02:05:05.564Z,100.00
2023-04-07T02:08:08.165Z,100.00
2023-04-07T02:11:07.900Z,100.00
2023-04-07T02:14:07.375Z,100.00
2023-04-07T02:17:05.944Z,100.00
2023-04-07T02:20:06.720Z,100.00
2023-04-07T02:23:04.091Z,100.00
2023-04-07T02:26:01.047Z,100.00
2023-04-07T02:28:57.890Z,100.00
2023-04-07T02:31:56.027Z,100.00
2023-04-07T02:34:52.936Z,100.00
2023-04-07T02:37:50.567Z,100.00
2023-04-07T02:40:47.424Z,100.00
2023-04-07T02:43:44.249Z,100.00
2023-04-07T02:46:41.436Z,100.00
2023-04-07T02:49:38.296Z,100.00
2023-04-07T02:52:35.414Z,100.00
2023-04-07T02:55:32.341Z,100.00
2023-04-07T02:58:29.226Z,100.00
2023-04-07T03:01:26.449Z,100.00
2023-04-07T03:04:23.554Z,100.00
2023-04-07T03:07:20.692Z,100.00
2023-04-07T03:10:17.694Z,100.00
2023-04-07T03:13:16.543Z,100.00
2023-04-07T03:16:13.362Z,100.00
2023-04-07T03:19:10.874Z,100.00
2023-04-07T03:22:07.807Z,100.00
2023-04-07T03:25:05.426Z,100.00
2023-04-07T03:28:02.268Z,100.00
2023-04-07T03:30:59.105Z,100.00
2023-04-07T03:33:55.958Z,100.00
2023-04-07T03:36:52.855Z,100.00
2023-04-07T03:39:50.882Z,100.00
2023-04-07T03:42:48.992Z,100.00
2023-04-07T03:45:46.767Z,100.00
2023-04-07T03:48:43.650Z,100.00
2023-04-07T03:51:40.557Z,100.00
2023-04-07T03:54:37.391Z,100.00
2023-04-07T03:57:34.241Z,100.00
2023-04-07T04:00:33.212Z,100.00
2023-04-07T04:03:30.323Z,100.00
2023-04-07T04:06:27.452Z,100.00
2023-04-07T04:09:24.277Z,100.00
2023-04-07T04:12:21.169Z,100.00
2023-04-07T04:15:17.975Z,100.00
2023-04-07T04:18:14.853Z,100.00
2023-04-07T04:21:11.811Z,100.00
2023-04-07T04:24:08.686Z,100.00
2023-04-07T04:27:05.772Z,100.00
2023-04-07T04:30:03.557Z,100.00
2023-04-07T04:33:00.547Z,100.00
2023-04-07T04:35:57.513Z,100.00
2023-04-07T04:38:54.313Z,100.00
2023-04-07T04:41:51.233Z,100.00
2023-04-07T04:44:48.062Z,100.00
2023-04-07T04:47:44.931Z,100.00
2023-04-07T04:50:43.164Z,100.00
2023-04-07T04:53:39.966Z,100.00
2023-04-07T04:56:36.842Z,100.00
2023-04-07T04:59:34.527Z,100.00
2023-04-07T05:02:31.996Z,100.00
2023-04-07T05:05:29.229Z,100.00
2023-04-07T05:08:26.057Z,100.00
2023-04-07T05:11:22.886Z,100.00
2023-04-07T05:14:19.728Z,100.00
2023-04-07T05:17:16.637Z,100.00
2023-04-07T05:20:17.221Z,100.00
2023-04-07T05:23:16.611Z,100.00
2023-04-07T05:26:13.455Z,100.00
2023-04-07T05:29:10.425Z,100.00
2023-04-07T05:32:07.375Z,100.00
2023-04-07T05:35:04.436Z,100.00
2023-04-07T05:38:01.617Z,100.00
2023-04-07T05:40:58.460Z,100.00
2023-04-07T05:43:55.368Z,100.00
2023-04-07T05:46:52.318Z,100.00
2023-04-07T05:49:49.211Z,100.00
2023-04-07T05:52:46.401Z,100.00
2023-04-07T05:55:43.663Z,100.00
2023-04-07T05:58:40.538Z,100.00
2023-04-07T06:01:37.391Z,100.00
2023-04-07T06:04:35.443Z,100.00
2023-04-07T06:07:32.304Z,100.00
2023-04-07T06:10:29.172Z,100.00
2023-04-07T06:13:26.241Z,100.00
2023-04-07T06:16:23.134Z,100.00
2023-04-07T06:19:19.974Z,100.00
2023-04-07T06:22:16.862Z,100.00
2023-04-07T06:25:13.714Z,100.00
2023-04-07T06:28:10.596Z,100.00
2023-04-07T06:31:09.163Z,100.00
2023-04-07T06:34:06.079Z,100.00
2023-04-07T06:37:05.387Z,100.00
2023-04-07T06:40:02.370Z,100.00
2023-04-07T06:42:59.271Z,100.00
2023-04-07T06:45:56.483Z,100.00
2023-04-07T06:48:53.436Z,100.00
2023-04-07T06:51:50.572Z,100.00
2023-04-07T06:54:47.450Z,100.00
2023-04-07T06:57:44.247Z,100.00
2023-04-07T07:00:41.102Z,100.00
2023-04-07T07:03:38.064Z,100.00
2023-04-07T07:06:35.207Z,100.00
2023-04-07T07:09:32.036Z,100.00
2023-04-07T07:12:28.902Z,100.00
2023-04-07T07:15:25.805Z,100.00
2023-04-07T07:18:22.724Z,100.00
2023-04-07T07:21:21.064Z,100.00
2023-04-07T07:24:17.894Z,100.00
2023-04-07T07:27:14.692Z,100.00
2023-04-07T07:30:11.849Z,100.00
2023-04-07T07:33:08.773Z,100.00
2023-04-07T07:36:06.068Z,100.00
2023-04-07T07:39:02.949Z,100.00
2023-04-07T07:41:59.771Z,100.00
2023-04-07T07:44:56.658Z,100.00
2023-04-07T07:47:53.674Z,100.00
2023-04-07T07:50:52.410Z,100.00
2023-04-07T07:53:49.565Z,100.00
2023-04-07T07:56:46.610Z,100.00
2023-04-07T07:59:43.668Z,100.00
2023-04-07T08:02:40.769Z,100.00
2023-04-07T08:05:37.631Z,100.00
2023-04-07T08:08:34.451Z,100.00
2023-04-07T08:11:31.261Z,100.00
2023-04-07T08:14:28.144Z,100.00
2023-04-07T08:17:25.049Z,100.00
2023-04-07T08:20:22.799Z,100.00
2023-04-07T08:23:19.720Z,98.31
2023-04-07T08:26:16.657Z,100.00
2023-04-07T08:29:13.499Z,100.00
2023-04-07T08:32:10.758Z,100.00
2023-04-07T08:35:08.049Z,100.00
2023-04-07T08:38:05.743Z,100.00
2023-04-07T08:41:12.957Z,95.81
2023-04-07T08:44:11.408Z,98.93
2023-04-07T08:47:11.622Z,97.63
2023-04-07T08:50:11.233Z,79.52
2023-04-07T08:53:13.023Z,91.52
2023-04-07T08:56:12.229Z,75.94
2023-04-07T08:59:15.731Z,70.07
2023-04-07T09:02:12.806Z,63.95
2023-04-07T09:05:10.526Z,66.62
2023-04-07T09:08:07.472Z,71.60
2023-04-07T09:11:04.583Z,57.58
2023-04-07T09:14:01.800Z,58.44
2023-04-07T09:17:00.237Z,58.18
2023-04-07T09:20:01.037Z,55.33
2023-04-07T09:22:59.148Z,55.73
2023-04-07T09:25:56.064Z,50.38
2023-04-07T09:29:01.335Z,52.72
2023-04-07T09:31:58.263Z,52.49
2023-04-07T09:35:00.125Z,51.06
2023-04-07T09:38:10.136Z,52.08
2023-04-07T09:41:16.447Z,50.59
2023-04-07T09:44:13.617Z,47.06
2023-04-07T09:47:11.131Z,43.88
2023-04-07T09:50:08.262Z,43.83
2023-04-07T09:53:05.432Z,53.84
2023-04-07T09:56:02.818Z,38.26
2023-04-07T09:59:01.470Z,39.07
2023-04-07T10:01:59.478Z,39.65
2023-04-07T10:04:56.409Z,47.73
2023-04-07T10:07:54.502Z,39.97
2023-04-07T10:10:51.596Z,47.32
2023-04-07T10:13:48.886Z,39.23
2023-04-07T10:16:48.168Z,36.16
2023-04-07T10:19:48.089Z,38.05
2023-04-07T10:22:46.654Z,38.90
2023-04-07T10:25:46.081Z,50.85
2023-04-07T10:28:46.098Z,39.76
2023-04-07T10:31:43.124Z,36.18
2023-04-07T10:34:54.760Z,33.89
2023-04-07T10:38:06.960Z,35.66
2023-04-07T10:41:33.646Z,31.46
2023-04-07T10:44:46.875Z,46.07
2023-04-07T10:47:58.834Z,38.82
2023-04-07T10:51:10.626Z,43.46
2023-04-07T10:54:20.862Z,42.45
2023-04-07T10:57:18.159Z,34.06
2023-04-07T11:00:16.335Z,35.90
2023-04-07T11:03:14.189Z,40.15
2023-04-07T11:06:14.651Z,38.28
2023-04-07T11:09:21.238Z,41.78
2023-04-07T11:12:25.003Z,35.75
2023-04-07T11:15:23.241Z,39.10
2023-04-07T11:18:23.705Z,46.00
2023-04-07T11:21:20.574Z,41.44
2023-04-07T11:24:34.119Z,35.05
2023-04-07T11:27:30.962Z,34.32
2023-04-07T11:30:27.907Z,33.46
2023-04-07T11:33:32.225Z,32.14
2023-04-07T11:36:40.407Z,31.66
2023-04-07T11:39:37.586Z,31.79
2023-04-07T11:42:41.093Z,36.94
2023-04-07T11:45:37.922Z,40.33
2023-04-07T11:48:37.166Z,33.30
2023-04-07T11:51:34.067Z,40.08
2023-04-07T11:54:46.950Z,37.34
2023-04-07T11:57:43.778Z,35.49
2023-04-07T12:00:58.032Z,38.58
2023-04-07T12:04:01.901Z,34.01
2023-04-07T12:07:12.224Z,43.35
2023-04-07T12:10:20.369Z,33.90
2023-04-07T12:13:17.651Z,31.74
2023-04-07T12:16:14.504Z,32.31
2023-04-07T12:19:11.363Z,34.23
2023-04-07T12:22:08.220Z,35.20
2023-04-07T12:25:05.825Z,36.92
2023-04-07T12:28:03.021Z,31.98
2023-04-07T12:31:00.171Z,41.93
2023-04-07T12:33:57.029Z,38.46
2023-04-07T12:36:53.961Z,36.91
2023-04-07T12:39:50.986Z,38.31
2023-04-07T12:42:48.058Z,41.40
2023-04-07T12:45:44.955Z,43.86
2023-04-07T12:48:41.896Z,36.45
2023-04-07T12:51:40.108Z,34.61
2023-04-07T12:54:37.123Z,35.36
2023-04-07T12:57:33.943Z,33.15
2023-04-07T13:00:31.483Z,33.88
2023-04-07T13:03:28.538Z,37.76
2023-04-07T13:06:25.622Z,42.73
2023-04-07T13:09:22.461Z,36.62
2023-04-07T13:12:19.349Z,35.65
2023-04-07T13:15:16.417Z,36.69
2023-04-07T13:18:13.676Z,34.53
2023-04-07T13:21:42.551Z,36.12
2023-04-07T13:24:27.635Z,36.08
2023-04-07T13:27:24.507Z,36.99
2023-04-07T13:30:22.742Z,36.67
2023-04-07T13:33:19.858Z,41.07
2023-04-07T13:36:16.683Z,35.08
2023-04-07T13:39:13.679Z,36.38
2023-04-07T13:42:12.587Z,34.21
2023-04-07T13:45:10.631Z,33.22
2023-04-07T13:48:07.776Z,33.29
2023-04-07T13:51:04.713Z,31.44
2023-04-07T13:54:01.515Z,31.97
2023-04-07T13:56:58.464Z,33.08
2023-04-07T13:59:55.703Z,30.78
2023-04-07T14:02:52.700Z,32.90
2023-04-07T14:05:49.628Z,35.76
2023-04-07T14:08:46.449Z,32.83
2023-04-07T14:11:43.297Z,31.06
2023-04-07T14:14:40.195Z,31.57
2023-04-07T14:17:37.548Z,33.72
2023-04-07T14:20:34.447Z,38.21
2023-04-07T14:23:37.408Z,30.94
2023-04-07T14:26:34.710Z,32.53
2023-04-07T14:29:31.745Z,39.76
2023-04-07T14:32:29.756Z,32.94
2023-04-07T14:35:26.886Z,32.23
2023-04-07T14:38:25.719Z,33.30
2023-04-07T14:41:24.250Z,32.62
2023-04-07T14:44:21.348Z,33.60
2023-04-07T14:47:18.325Z,35.56
2023-04-07T14:50:15.135Z,35.41
2023-04-07T14:53:12.031Z,36.30
2023-04-07T14:56:08.931Z,35.83
2023-04-07T14:59:05.885Z,37.03
2023-04-07T15:02:02.810Z,37.20
2023-04-07T15:05:00.083Z,37.01
2023-04-07T15:07:57.379Z,38.13
2023-04-07T15:10:54.218Z,37.92
2023-04-07T15:13:51.278Z,43.18
2023-04-07T15:16:50.287Z,38.37
2023-04-07T15:19:47.676Z,42.11
2023-04-07T15:22:44.543Z,47.29
2023-04-07T15:25:41.347Z,45.02
2023-04-07T15:28:38.897Z,40.22
2023-04-07T15:31:35.825Z,40.42
2023-04-07T15:34:32.666Z,39.75
2023-04-07T15:37:29.472Z,40.44
2023-04-07T15:40:26.305Z,40.23
2023-04-07T15:43:23.637Z,40.55
2023-04-07T15:46:20.496Z,40.97
2023-04-07T15:49:23.136Z,41.54
2023-04-07T15:52:21.784Z,42.07
2023-04-07T15:55:18.888Z,42.37
2023-04-07T15:58:15.872Z,41.75
2023-04-07T16:01:13.018Z,41.66
2023-04-07T16:04:09.969Z,41.42
2023-04-07T16:07:06.901Z,41.61
2023-04-07T16:10:04.601Z,42.18
2023-04-07T16:13:01.410Z,42.49
2023-04-07T16:15:58.470Z,41.58
2023-04-07T16:18:55.407Z,42.34
2023-04-07T16:21:53.233Z,43.84
2023-04-07T16:24:50.074Z,45.53
2023-04-07T16:27:47.297Z,45.60
2023-04-07T16:30:44.122Z,48.25
2023-04-07T16:33:41.014Z,46.40
2023-04-07T16:36:38.101Z,47.52
2023-04-07T16:39:34.924Z,50.57
2023-04-07T16:42:31.969Z,49.44
2023-04-07T16:45:28.847Z,49.83
2023-04-07T16:48:26.292Z,51.00
2023-04-07T16:51:24.769Z,51.72
2023-04-07T16:54:21.606Z,50.68
2023-04-07T16:57:18.721Z,50.68
2023-04-07T17:00:16.189Z,51.04
2023-04-07T17:03:16.273Z,51.97
2023-04-07T17:06:13.345Z,50.75
2023-04-07T17:09:12.219Z,53.15
2023-04-07T17:12:09.103Z,52.05
2023-04-07T17:15:06.763Z,52.42
2023-04-07T17:18:03.929Z,54.92
2023-04-07T17:21:00.845Z,54.62
2023-04-07T17:23:57.999Z,57.67
2023-04-07T17:26:54.939Z,55.44
2023-04-07T17:29:51.771Z,55.61
2023-04-07T17:32:50.760Z,58.43
2023-04-07T17:35:49.874Z,59.74
2023-04-07T17:38:46.839Z,65.37
2023-04-07T17:41:43.889Z,62.62
2023-04-07T17:44:40.800Z,57.61
2023-04-07T17:47:37.753Z,59.18
2023-04-07T17:50:34.671Z,65.24
2023-04-07T17:53:32.801Z,61.63
2023-04-07T17:56:29.680Z,61.67
2023-04-07T17:59:26.509Z,66.13
2023-04-07T18:02:23.575Z,63.98
2023-04-07T18:05:21.067Z,64.64
2023-04-07T18:08:18.089Z,66.37
2023-04-07T18:11:16.191Z,65.27
2023-04-07T18:14:13.112Z,69.49
2023-04-07T18:17:10.895Z,70.35
2023-04-07T18:20:08.232Z,77.10
2023-04-07T18:23:05.767Z,77.53
2023-04-07T18:26:05.121Z,82.87
2023-04-07T18:29:02.054Z,85.53
2023-04-07T18:31:58.893Z,82.91
2023-04-07T18:34:55.814Z,85.78
2023-04-07T18:37:52.710Z,88.56
2023-04-07T18:40:50.568Z,88.22
2023-04-07T18:43:48.456Z,93.23
2023-04-07T18:46:46.409Z,91.13
2023-04-07T18:49:43.618Z,92.67
2023-04-07T18:52:40.650Z,93.84
2023-04-07T18:55:37.488Z,97.22
2023-04-07T18:58:35.702Z,93.94
2023-04-07T19:01:32.699Z,95.21
2023-04-07T19:04:29.567Z,98.43
2023-04-07T19:07:26.560Z,97.28
2023-04-07T19:10:23.590Z,100.00
2023-04-07T19:13:20.469Z,97.83
2023-04-07T19:16:17.715Z,98.07
2023-04-07T19:19:14.723Z,97.70
2023-04-07T19:22:12.499Z,99.22
2023-04-07T19:25:09.759Z,98.81
2023-04-07T19:28:06.769Z,100.00
2023-04-07T19:31:06.553Z,98.28
2023-04-07T19:34:03.363Z,100.00
2023-04-07T19:37:00.342Z,99.65
2023-04-07T19:40:02.857Z,98.07
2023-04-07T19:43:00.814Z,99.69
2023-04-07T19:45:58.005Z,100.00
2023-04-07T19:48:54.934Z,100.00
2023-04-07T19:51:54.123Z,100.00
2023-04-07T19:54:51.334Z,100.00
2023-04-07T19:57:48.679Z,100.00
2023-04-07T20:00:49.603Z,100.00
2023-04-07T20:03:46.805Z,100.00
2023-04-07T20:06:43.796Z,100.00
2023-04-07T20:09:40.611Z,100.00
2023-04-07T20:12:37.432Z,100.00
2023-04-07T20:15:34.314Z,100.00
2023-04-07T20:18:32.361Z,100.00
2023-04-07T20:21:29.305Z,100.00
2023-04-07T20:24:26.315Z,100.00
2023-04-07T20:27:23.133Z,100.00
2023-04-07T20:30:19.960Z,100.00
2023-04-07T20:33:16.966Z,100.00
2023-04-07T20:36:13.890Z,100.00
2023-04-07T20:39:11.053Z,100.00
2023-04-07T20:42:07.954Z,100.00
2023-04-07T20:45:06.420Z,100.00
2023-04-07T20:48:03.549Z,100.00
2023-04-07T20:51:01.301Z,100.00
2023-04-07T20:53:58.105Z,100.00
2023-04-07T20:56:55.044Z,100.00
2023-04-07T20:59:51.964Z,100.00
2023-04-07T21:02:49.309Z,100.00
2023-04-07T21:05:48.279Z,100.00
2023-04-07T21:08:45.097Z,100.00
2023-04-07T21:11:43.469Z,100.00
2023-04-07T21:14:40.406Z,100.00
2023-04-07T21:17:37.263Z,100.00
2023-04-07T21:20:37.238Z,100.00
2023-04-07T21:23:34.236Z,100.00
2023-04-07T21:26:31.099Z,100.00
2023-04-07T21:29:30.833Z,100.00
2023-04-07T21:32:27.759Z,100.00
2023-04-07T21:35:30.972Z,100.00
2023-04-07T21:38:28.132Z,100.00
2023-04-07T21:41:24.993Z,100.00
2023-04-07T21:44:22.567Z,100.00
2023-04-07T21:47:19.503Z,100.00
2023-04-07T21:50:16.865Z,100.00
2023-04-07T21:53:13.669Z,100.00
2023-04-07T21:56:10.877Z,100.00
2023-04-07T21:59:07.897Z,100.00
2023-04-07T22:02:04.890Z,100.00
2023-04-07T22:05:01.791Z,100.00
2023-04-07T22:07:58.740Z,100.00
2023-04-07T22:10:55.586Z,100.00
2023-04-07T22:13:52.406Z,100.00
2023-04-07T22:16:49.222Z,100.00
2023-04-07T22:19:46.453Z,100.00
2023-04-07T22:22:43.993Z,100.00
2023-04-07T22:25:41.029Z,100.00
2023-04-07T22:28:37.849Z,100.00
2023-04-07T22:31:34.778Z,100.00
2023-04-07T22:34:31.637Z,100.00
2023-04-07T22:37:28.456Z,100.00
2023-04-07T22:40:25.425Z,100.00
2023-04-07T22:43:22.407Z,100.00
2023-04-07T22:46:19.252Z,100.00
2023-04-07T22:49:16.700Z,100.00
2023-04-07T22:52:13.519Z,100.00
2023-04-07T22:55:10.477Z,100.00
2023-04-07T22:58:07.317Z,100.00
2023-04-07T23:01:04.330Z,100.00
2023-04-07T23:04:01.492Z,100.00
2023-04-07T23:06:58.435Z,100.00
2023-04-07T23:09:55.391Z,100.00
2023-04-07T23:12:54.034Z,100.00
2023-04-07T23:15:50.877Z,100.00
2023-04-07T23:18:47.843Z,100.00
2023-04-07T23:21:44.860Z,100.00
2023-04-07T23:24:42.166Z,100.00
2023-04-07T23:27:39.042Z,100.00
2023-04-07T23:30:37.357Z,100.00
2023-04-07T23:33:34.296Z,100.00
2023-04-07T23:36:31.477Z,100.00
2023-04-07T23:39:28.297Z,100.00
2023-04-07T23:42:25.264Z,100.00
2023-04-07T23:45:22.985Z,100.00
2023-04-07T23:48:19.818Z,100.00
2023-04-07T23:51:16.689Z,100.00
2023-04-07T23:54:13.947Z,100.00
2023-04-07T23:57:10.770Z,100.00
